createdAt,value
2023-05-04T00:00:22.635Z,23.214286
2023-05-04T00:05:25.425Z,23.400000
2023-05-04T00:10:27.937Z,22.666667
2023-05-04T00:15:30.051Z,23.400000
2023-05-04T00:20:32.166Z,23.400000
2023-05-04T00:25:34.854Z,23.666667
2023-05-04T00:30:17.042Z,23.133333
2023-05-04T00:35:19.625Z,23.333333
2023-05-04T00:40:22.257Z,24.142857
2023-05-04T00:45:24.404Z,24.800000
2023-05-04T00:50:26.535Z,25.800000
2023-05-04T00:55:28.622Z,26.800000
2023-05-04T01:00:30.854Z,27.800000
2023-05-04T01:05:33.016Z,29.400000
2023-05-04T01:10:35.398Z,28.866667
2023-05-04T01:15:17.226Z,29.266667
2023-05-04T01:20:20.015Z,30.933333
2023-05-04T01:25:22.522Z,32.357143
2023-05-04T01:30:24.732Z,33.266667
2023-05-04T01:35:27.355Z,33.133333
2023-05-04T01:40:30.140Z,32.666667
2023-05-04T01:45:32.329Z,33.933333
2023-05-04T01:50:34.426Z,33.466667
2023-05-04T01:55:16.365Z,34.533333
2023-05-04T02:00:18.442Z,34.800000
2023-05-04T02:05:20.935Z,35.133333
2023-05-04T02:10:22.994Z,35.785714
2023-05-04T02:15:25.181Z,33.600000
2023-05-04T02:20:27.574Z,33.266667
2023-05-04T02:25:30.188Z,34.133333
2023-05-04T02:30:32.696Z,33.400000
2023-05-04T02:35:35.898Z,34.066667
2023-05-04T02:40:17.870Z,35.800000
2023-05-04T02:45:20.818Z,38.200000
2023-05-04T02:50:23.164Z,41.642857
2023-05-04T02:55:25.257Z,40.133333
2023-05-04T03:00:27.664Z,40.866667
2023-05-04T03:05:29.970Z,40.533333
2023-05-04T03:10:32.924Z,39.733333
2023-05-04T03:15:35.552Z,38.533333
2023-05-04T03:20:17.551Z,35.933333
2023-05-04T03:25:20.094Z,38.666667
2023-05-04T03:30:22.795Z,44.642857
2023-05-04T03:35:25.467Z,47.600000
2023-05-04T03:40:27.601Z,47.866667
2023-05-04T03:45:30.328Z,50.466667
2023-05-04T03:50:32.575Z,51.333333
2023-05-04T03:55:35.077Z,51.800000
2023-05-04T04:00:17.166Z,52.133333
2023-05-04T04:05:19.542Z,52.666667
2023-05-04T04:10:22.092Z,50.500000
2023-05-04T04:15:24.294Z,49.733333
2023-05-04T04:20:26.438Z,48.866667
2023-05-04T04:25:28.989Z,50.533333
2023-05-04T04:30:31.502Z,51.000000
2023-05-04T04:35:34.048Z,51.000000
2023-05-04T04:40:16.651Z,51.266667
2023-05-04T04:45:19.068Z,54.000000
2023-05-04T04:50:21.426Z,57.000000
2023-05-04T04:55:24.089Z,57.714286
2023-05-04T05:00:26.300Z,59.000000
2023-05-04T05:05:30.317Z,59.000000
2023-05-04T05:10:31.002Z,58.800000
2023-05-04T05:15:33.514Z,58.600000
2023-05-04T05:20:35.814Z,59.000000
2023-05-04T05:25:18.148Z,59.333333
2023-05-04T05:30:21.226Z,59.000000
2023-05-04T05:35:24.078Z,58.000000
2023-05-04T05:40:26.259Z,58.733333
2023-05-04T05:45:28.391Z,57.666667
2023-05-04T05:50:31.405Z,57.066667
2023-05-04T05:55:33.840Z,57.800000
2023-05-04T06:00:16.302Z,59.933333
2023-05-04T06:05:19.041Z,61.000000
2023-05-04T06:10:20.605Z,61.333333
2023-05-04T06:15:22.718Z,60.071429
2023-05-04T06:20:25.302Z,60.066667
2023-05-04T06:25:27.626Z,61.533333
2023-05-04T06:30:29.746Z,62.200000
2023-05-04T06:35:31.949Z,62.866667
2023-05-04T06:40:34.405Z,63.000000
2023-05-04T06:45:16.846Z,63.000000
2023-05-04T06:50:19.501Z,63.133333
2023-05-04T06:55:21.958Z,63.066667
2023-05-04T07:00:24.358Z,64.000000
2023-05-04T07:05:26.885Z,63.533333
2023-05-04T07:10:28.910Z,63.533333
2023-05-04T07:15:31.494Z,64.000000
2023-05-04T07:20:34.104Z,64.000000
2023-05-04T07:25:16.163Z,64.733333
2023-05-04T07:30:18.967Z,65.000000
2023-05-04T07:35:21.108Z,66.466667
2023-05-04T07:40:24.265Z,67.071429
2023-05-04T07:45:27.369Z,66.266667
2023-05-04T07:50:29.578Z,67.000000
2023-05-04T07:55:32.173Z,64.066667
2023-05-04T08:00:35.595Z,63.400000
2023-05-04T08:05:17.534Z,61.266667
2023-05-04T08:10:20.718Z,60.266667
2023-05-04T08:15:22.737Z,58.928571
2023-05-04T08:20:25.297Z,58.000000
2023-05-04T08:25:27.711Z,58.000000
2023-05-04T08:30:30.230Z,58.466667
2023-05-04T08:35:32.837Z,58.600000
2023-05-04T08:40:35.372Z,57.933333
2023-05-04T08:45:17.306Z,60.333333
2023-05-04T08:50:19.825Z,64.000000
2023-05-04T08:55:22.562Z,64.142857
2023-05-04T09:00:25.439Z,66.066667
2023-05-04T09:05:33.819Z,66.000000
2023-05-04T09:10:16.232Z,66.066667
2023-05-04T09:15:18.878Z,66.266667
2023-05-04T09:20:22.081Z,67.428571
2023-05-04T09:25:25.134Z,67.733333
2023-05-04T09:30:27.741Z,67.133333
2023-05-04T09:35:33.697Z,68.466667
2023-05-04T09:40:32.813Z,69.733333
2023-05-04T09:45:35.441Z,70.800000
2023-05-04T09:50:20.751Z,71.800000
2023-05-04T09:55:21.059Z,72.066667
2023-05-04T10:00:24.797Z,73.000000
2023-05-04T10:05:27.650Z,73.000000
2023-05-04T10:10:30.739Z,73.000000
2023-05-04T10:15:35.100Z,73.066667
2023-05-04T10:20:19.090Z,74.133333
2023-05-04T10:25:21.219Z,75.733333
2023-05-04T10:30:24.036Z,76.214286
2023-05-04T10:35:27.446Z,76.933333
2023-05-04T10:40:32.205Z,76.000000
2023-05-04T10:45:34.637Z,76.000000
2023-05-04T10:50:17.869Z,76.000000
2023-05-04T10:55:22.689Z,75.142857
2023-05-04T11:00:26.840Z,75.000000
2023-05-04T11:05:29.347Z,75.000000
2023-05-04T11:10:32.748Z,75.666667
2023-05-04T11:15:36.698Z,76.000000
2023-05-04T11:20:17.758Z,76.000000
2023-05-04T11:25:21.109Z,76.666667
2023-05-04T11:30:24.127Z,76.285714
2023-05-04T11:35:27.183Z,75.933333
2023-05-04T11:40:30.203Z,76.533333
2023-05-04T11:45:33.196Z,77.000000
2023-05-04T11:50:16.114Z,75.666667
2023-05-04T11:55:18.907Z,75.133333
2023-05-04T12:00:34.528Z,75.000000
2023-05-04T12:05:25.150Z,75.000000
2023-05-04T12:10:29.494Z,74.133333
2023-05-04T12:15:30.940Z,74.000000
2023-05-04T12:20:35.630Z,73.733333
2023-05-04T12:25:17.140Z,76.666667
2023-05-04T12:30:19.985Z,78.000000
2023-05-04T12:35:24.496Z,78.142857
2023-05-04T12:40:28.711Z,77.733333
2023-05-04T12:45:28.382Z,77.000000
2023-05-04T12:50:31.257Z,76.666667
2023-05-04T12:55:34.806Z,77.000000
2023-05-04T13:00:19.882Z,77.000000
2023-05-04T13:05:24.404Z,76.285714
2023-05-04T13:10:27.631Z,76.000000
2023-05-04T13:15:30.706Z,75.333333
2023-05-04T13:20:33.190Z,74.333333
2023-05-04T13:25:16.413Z,72.600000
2023-05-04T13:30:21.944Z,70.266667
2023-05-04T13:35:24.671Z,69.428571
2023-05-04T13:40:28.384Z,69.800000
2023-05-04T13:45:32.111Z,69.933333
2023-05-04T13:50:35.743Z,68.733333
2023-05-04T13:55:18.653Z,68.400000
2023-05-04T14:00:21.840Z,63.933333
2023-05-04T14:05:25.053Z,61.357143
2023-05-04T14:10:28.522Z,59.666667
2023-05-04T14:15:32.015Z,59.200000
2023-05-04T14:20:33.608Z,59.533333
2023-05-04T14:25:16.745Z,58.733333
2023-05-04T14:30:19.856Z,59.000000
2023-05-04T14:35:23.049Z,58.571429
2023-05-04T14:40:26.120Z,58.733333
2023-05-04T14:45:29.396Z,59.933333
2023-05-04T14:50:32.532Z,60.600000
2023-05-04T14:55:35.488Z,63.600000
2023-05-04T15:00:18.825Z,59.733333
2023-05-04T15:05:23.344Z,57.000000
2023-05-04T15:10:26.998Z,56.133333
2023-05-04T15:15:29.016Z,55.400000
2023-05-04T15:20:31.991Z,54.000000
2023-05-04T15:25:15.814Z,55.200000
2023-05-04T15:30:18.988Z,55.200000
2023-05-04T15:35:21.103Z,54.800000
2023-05-04T15:40:24.258Z,53.142857
2023-05-04T15:45:27.630Z,52.866667
2023-05-04T15:50:31.110Z,55.933333
2023-05-04T15:55:33.179Z,54.866667
2023-05-04T16:00:36.893Z,53.642857
2023-05-04T16:05:18.048Z,52.625000
2023-05-04T16:10:22.236Z,50.866667
2023-05-04T16:15:25.201Z,50.214286
2023-05-04T16:20:29.056Z,48.466667
2023-05-04T16:25:31.673Z,50.333333
2023-05-04T16:30:17.252Z,50.533333
2023-05-04T16:35:20.397Z,49.533333
2023-05-04T16:40:23.363Z,50.714286
2023-05-04T16:45:27.738Z,47.733333
2023-05-04T16:50:31.238Z,47.800000
2023-05-04T16:55:33.146Z,48.866667
2023-05-04T17:00:15.972Z,47.066667
2023-05-04T17:05:20.595Z,46.466667
2023-05-04T17:10:22.150Z,48.285714
2023-05-04T17:15:24.928Z,48.400000
2023-05-04T17:20:28.222Z,49.666667
2023-05-04T17:25:31.385Z,49.733333
2023-05-04T17:30:34.180Z,47.600000
2023-05-04T17:35:25.269Z,47.600000
2023-05-04T17:40:20.656Z,47.333333
2023-05-04T17:45:23.814Z,46.428571
2023-05-04T17:50:26.285Z,47.133333
2023-05-04T17:55:29.458Z,46.200000
2023-05-04T18:00:33.114Z,46.533333
2023-05-04T18:05:16.118Z,47.933333
2023-05-04T18:10:18.790Z,45.733333
2023-05-04T18:15:22.661Z,46.000000
2023-05-04T18:20:25.815Z,45.400000
2023-05-04T18:25:29.054Z,45.400000
2023-05-04T18:30:32.234Z,44.400000
2023-05-04T18:35:15.809Z,48.533333
2023-05-04T18:40:19.295Z,53.066667
2023-05-04T18:45:22.909Z,55.500000
2023-05-04T18:50:26.854Z,53.600000
2023-05-04T18:55:29.178Z,53.000000
2023-05-04T19:00:32.494Z,52.666667
2023-05-04T19:05:16.272Z,51.666667
2023-05-04T19:10:18.692Z,47.400000
2023-05-04T19:15:22.389Z,47.785714
2023-05-04T19:20:26.173Z,47.000000
2023-05-04T19:25:34.669Z,41.866667
2023-05-04T19:30:33.826Z,39.466667
2023-05-04T19:35:15.902Z,39.200000
2023-05-04T19:40:19.615Z,38.533333
2023-05-04T19:45:22.427Z,36.071429
2023-05-04T19:50:26.280Z,34.933333
2023-05-04T19:55:28.801Z,36.066667
2023-05-04T20:00:32.306Z,35.600000
2023-05-04T20:05:36.835Z,35.400000
2023-05-04T20:10:19.678Z,33.733333
2023-05-04T20:15:22.026Z,31.428571
2023-05-04T20:20:25.762Z,28.666667
2023-05-04T20:25:28.365Z,27.866667
2023-05-04T20:30:31.048Z,28.333333
2023-05-04T20:35:34.684Z,28.666667
2023-05-04T20:40:18.256Z,28.333333
2023-05-04T20:45:20.879Z,27.733333
2023-05-04T20:50:25.326Z,28.142857
2023-05-04T20:55:26.852Z,28.333333
2023-05-04T21:00:31.005Z,30.200000
2023-05-04T21:05:33.241Z,33.333333
2023-05-04T21:10:16.425Z,33.466667
2023-05-04T21:15:19.554Z,31.600000
2023-05-04T21:20:23.653Z,31.142857
2023-05-04T21:25:25.476Z,31.000000
2023-05-04T21:30:28.541Z,30.400000
2023-05-04T21:35:31.323Z,29.866667
2023-05-04T21:40:34.206Z,29.733333
2023-05-04T21:45:17.006Z,29.666667
2023-05-04T21:50:20.663Z,28.800000
2023-05-04T21:55:23.556Z,29.214286
2023-05-04T22:00:26.737Z,31.666667
2023-05-04T22:05:31.865Z,33.600000
2023-05-04T22:10:32.475Z,34.333333
2023-05-04T22:15:46.303Z,34.733333
2023-05-04T22:20:18.508Z,34.933333
2023-05-04T22:25:22.751Z,35.285714
2023-05-04T22:30:26.372Z,34.933333
2023-05-04T22:35:28.942Z,35.733333
2023-05-04T22:40:31.916Z,37.400000
2023-05-04T22:45:34.356Z,39.200000
2023-05-04T22:50:17.891Z,39.200000
2023-05-04T22:55:20.530Z,40.000000
2023-05-04T23:00:24.798Z,39.142857
2023-05-04T23:05:27.925Z,38.866667
2023-05-04T23:10:31.180Z,39.466667
2023-05-04T23:15:33.921Z,38.600000
2023-05-04T23:20:16.415Z,38.933333
2023-05-04T23:25:18.827Z,38.066667
2023-05-04T23:30:22.383Z,37.333333
2023-05-04T23:35:24.293Z,37.142857
2023-05-04T23:40:27.880Z,38.466667
2023-05-04T23:45:31.722Z,39.066667
2023-05-04T23:50:34.119Z,40.266667
2023-05-04T23:55:17.726Z,42.866667
